sensor_id;sensor_type;location;lat;lon;timestamp;temperature;humidity
20658;DHT22;10488;50.846;4.078;2022-10-16T00:01:56;13.80;99.90
20658;DHT22;10488;50.846;4.078;2022-10-16T00:04:22;13.80;99.90
20658;DHT22;10488;50.846;4.078;2022-10-16T00:06:47;13.70;99.90
20658;DHT22;10488;50.846;4.078;2022-10-16T00:09:13;13.70;99.90
20658;DHT22;10488;50.846;4.078;2022-10-16T00:11:39;13.70;99.90
20658;DHT22;10488;50.846;4.078;2022-10-16T00:14:09;13.70;99.90
20658;DHT22;10488;50.846;4.078;2022-10-16T00:16:35;13.70;99.90
20658;DHT22;10488;50.846;4.078;2022-10-16T00:19:01;13.70;99.90
20658;DHT22;10488;50.846;4.078;2022-10-16T00:21:29;13.80;99.90
20658;DHT22;10488;50.846;4.078;2022-10-16T00:24:00;13.90;99.90
20658;DHT22;10488;50.846;4.078;2022-10-16T00:26:28;13.80;99.90
20658;DHT22;10488;50.846;4.078;2022-10-16T00:28:54;13.80;99.90
20658;DHT22;10488;50.846;4.078;2022-10-16T00:31:21;13.80;99.90
20658;DHT22;10488;50.846;4.078;2022-10-16T00:33:48;13.70;99.90
20658;DHT22;10488;50.846;4.078;2022-10-16T00:36:17;13.80;99.90
20658;DHT22;10488;50.846;4.078;2022-10-16T00:38:44;13.70;99.90
20658;DHT22;10488;50.846;4.078;2022-10-16T00:41:15;13.70;99.90
20658;DHT22;10488;50.846;4.078;2022-10-16T00:43:51;13.70;99.90
20658;DHT22;10488;50.846;4.078;2022-10-16T00:46:35;13.70;99.90
20658;DHT22;10488;50.846;4.078;2022-10-16T00:49:04;13.70;99.90
20658;DHT22;10488;50.846;4.078;2022-10-16T00:51:37;13.70;99.90
20658;DHT22;10488;50.846;4.078;2022-10-16T00:54:06;13.70;99.90
20658;DHT22;10488;50.846;4.078;2022-10-16T00:56:33;13.70;99.90
20658;DHT22;10488;50.846;4.078;2022-10-16T00:59:00;13.70;99.90
20658;DHT22;10488;50.846;4.078;2022-10-16T01:01:26;13.60;99.90
20658;DHT22;10488;50.846;4.078;2022-10-16T01:03:52;13.50;99.90
20658;DHT22;10488;50.846;4.078;2022-10-16T01:09:24;13.40;99.90
20658;DHT22;10488;50.846;4.078;2022-10-16T01:12:09;13.50;99.90
20658;DHT22;10488;50.846;4.078;2022-10-16T01:14:47;13.40;99.90
20658;DHT22;10488;50.846;4.078;2022-10-16T01:25:30;13.30;99.90
20658;DHT22;10488;50.846;4.078;2022-10-16T01:27:57;13.30;99.90
20658;DHT22;10488;50.846;4.078;2022-10-16T01:30:27;13.30;99.90
20658;DHT22;10488;50.846;4.078;2022-10-16T01:33:18;13.30;99.90
20658;DHT22;10488;50.846;4.078;2022-10-16T01:35:53;13.30;99.90
20658;DHT22;10488;50.846;4.078;2022-10-16T01:38:31;13.40;99.90
20658;DHT22;10488;50.846;4.078;2022-10-16T01:41:02;13.30;99.90
20658;DHT22;10488;50.846;4.078;2022-10-16T01:44:24;13.30;99.90
20658;DHT22;10488;50.846;4.078;2022-10-16T01:46:24;13.30;99.90
20658;DHT22;10488;50.846;4.078;2022-10-16T01:48:53;13.30;99.90
20658;DHT22;10488;50.846;4.078;2022-10-16T01:51:20;13.20;99.90
20658;DHT22;10488;50.846;4.078;2022-10-16T01:53:50;13.30;99.90
20658;DHT22;10488;50.846;4.078;2022-10-16T01:56:18;13.20;99.90
20658;DHT22;10488;50.846;4.078;2022-10-16T01:59:07;13.20;99.90
20658;DHT22;10488;50.846;4.078;2022-10-16T02:01:37;13.20;99.90
20658;DHT22;10488;50.846;4.078;2022-10-16T02:04:18;13.30;99.90
20658;DHT22;10488;50.846;4.078;2022-10-16T02:06:46;13.30;99.90
20658;DHT22;10488;50.846;4.078;2022-10-16T02:09:12;13.30;99.90
20658;DHT22;10488;50.846;4.078;2022-10-16T02:11:37;13.20;99.90
20658;DHT22;10488;50.846;4.078;2022-10-16T02:14:07;13.20;99.90
20658;DHT22;10488;50.846;4.078;2022-10-16T02:16:41;13.30;99.90
20658;DHT22;10488;50.846;4.078;2022-10-16T02:19:08;13.30;99.90
20658;DHT22;10488;50.846;4.078;2022-10-16T02:21:43;13.30;99.90
20658;DHT22;10488;50.846;4.078;2022-10-16T02:27:19;13.30;99.90
20658;DHT22;10488;50.846;4.078;2022-10-16T02:29:53;13.30;99.90
20658;DHT22;10488;50.846;4.078;2022-10-16T02:32:27;13.40;99.90
20658;DHT22;10488;50.846;4.078;2022-10-16T02:34:56;13.40;99.90
20658;DHT22;10488;50.846;4.078;2022-10-16T02:37:24;13.30;99.90
20658;DHT22;10488;50.846;4.078;2022-10-16T02:39:50;13.20;99.90
20658;DHT22;10488;50.846;4.078;2022-10-16T02:42:17;13.20;99.90
20658;DHT22;10488;50.846;4.078;2022-10-16T02:44:43;13.30;99.90
20658;DHT22;10488;50.846;4.078;2022-10-16T02:47:08;13.20;99.90
20658;DHT22;10488;50.846;4.078;2022-10-16T02:49:34;13.30;99.90
20658;DHT22;10488;50.846;4.078;2022-10-16T02:52:01;13.30;99.90
20658;DHT22;10488;50.846;4.078;2022-10-16T02:54:26;13.30;99.90
20658;DHT22;10488;50.846;4.078;2022-10-16T02:56:53;13.40;99.90
20658;DHT22;10488;50.846;4.078;2022-10-16T02:59:19;13.40;99.90
20658;DHT22;10488;50.846;4.078;2022-10-16T03:01:44;13.40;99.90
20658;DHT22;10488;50.846;4.078;2022-10-16T03:04:10;13.40;99.90
20658;DHT22;10488;50.846;4.078;2022-10-16T03:06:35;13.30;99.90
20658;DHT22;10488;50.846;4.078;2022-10-16T03:09:02;13.40;99.90
20658;DHT22;10488;50.846;4.078;2022-10-16T03:11:27;13.40;99.90
20658;DHT22;10488;50.846;4.078;2022-10-16T03:13:53;13.30;99.90
20658;DHT22;10488;50.846;4.078;2022-10-16T03:16:19;13.30;99.90
20658;DHT22;10488;50.846;4.078;2022-10-16T03:18:48;13.30;99.90
20658;DHT22;10488;50.846;4.078;2022-10-16T03:21:15;13.20;99.90
20658;DHT22;10488;50.846;4.078;2022-10-16T03:23:40;13.30;99.90
20658;DHT22;10488;50.846;4.078;2022-10-16T03:26:06;13.20;99.90
20658;DHT22;10488;50.846;4.078;2022-10-16T03:28:31;13.30;99.90
20658;DHT22;10488;50.846;4.078;2022-10-16T03:30:57;13.30;99.90
20658;DHT22;10488;50.846;4.078;2022-10-16T03:33:23;13.50;99.90
20658;DHT22;10488;50.846;4.078;2022-10-16T03:35:52;13.40;99.90
20658;DHT22;10488;50.846;4.078;2022-10-16T03:38:19;13.40;99.90
20658;DHT22;10488;50.846;4.078;2022-10-16T03:40:44;13.30;99.90
20658;DHT22;10488;50.846;4.078;2022-10-16T03:43:10;13.40;99.90
20658;DHT22;10488;50.846;4.078;2022-10-16T03:45:35;13.40;99.90
20658;DHT22;10488;50.846;4.078;2022-10-16T03:48:01;13.40;99.90
20658;DHT22;10488;50.846;4.078;2022-10-16T03:50:28;13.40;99.90
20658;DHT22;10488;50.846;4.078;2022-10-16T03:52:54;13.40;99.90
20658;DHT22;10488;50.846;4.078;2022-10-16T03:55:21;13.40;99.90
20658;DHT22;10488;50.846;4.078;2022-10-16T03:57:46;13.50;99.90
20658;DHT22;10488;50.846;4.078;2022-10-16T04:00:12;13.50;99.90
20658;DHT22;10488;50.846;4.078;2022-10-16T04:02:38;13.40;99.90
20658;DHT22;10488;50.846;4.078;2022-10-16T04:05:04;13.40;99.90
20658;DHT22;10488;50.846;4.078;2022-10-16T04:07:30;13.40;99.90
20658;DHT22;10488;50.846;4.078;2022-10-16T04:09:56;13.40;99.90
20658;DHT22;10488;50.846;4.078;2022-10-16T04:12:23;13.30;99.90
20658;DHT22;10488;50.846;4.078;2022-10-16T04:14:48;13.30;99.90
20658;DHT22;10488;50.846;4.078;2022-10-16T04:17:14;13.30;99.90
20658;DHT22;10488;50.846;4.078;2022-10-16T04:19:39;13.30;99.90
20658;DHT22;10488;50.846;4.078;2022-10-16T04:22:05;13.30;99.90
20658;DHT22;10488;50.846;4.078;2022-10-16T04:24:31;13.40;99.90
20658;DHT22;10488;50.846;4.078;2022-10-16T04:26:56;13.40;99.90
20658;DHT22;10488;50.846;4.078;2022-10-16T04:29:22;13.30;99.90
20658;DHT22;10488;50.846;4.078;2022-10-16T04:31:47;13.30;99.90
20658;DHT22;10488;50.846;4.078;2022-10-16T04:34:13;13.20;99.90
20658;DHT22;10488;50.846;4.078;2022-10-16T04:36:39;13.30;99.90
20658;DHT22;10488;50.846;4.078;2022-10-16T04:39:04;13.30;99.90
20658;DHT22;10488;50.846;4.078;2022-10-16T04:41:30;13.30;99.90
20658;DHT22;10488;50.846;4.078;2022-10-16T04:43:56;13.30;99.90
20658;DHT22;10488;50.846;4.078;2022-10-16T04:46:21;13.20;99.90
20658;DHT22;10488;50.846;4.078;2022-10-16T04:48:47;13.20;99.90
20658;DHT22;10488;50.846;4.078;2022-10-16T04:51:13;13.20;99.90
20658;DHT22;10488;50.846;4.078;2022-10-16T04:53:38;13.10;99.90
20658;DHT22;10488;50.846;4.078;2022-10-16T04:56:04;13.10;99.90
20658;DHT22;10488;50.846;4.078;2022-10-16T04:58:30;13.30;99.90
20658;DHT22;10488;50.846;4.078;2022-10-16T05:00:56;13.20;99.90
20658;DHT22;10488;50.846;4.078;2022-10-16T05:03:21;13.10;99.90
20658;DHT22;10488;50.846;4.078;2022-10-16T05:05:47;13.00;99.90
20658;DHT22;10488;50.846;4.078;2022-10-16T05:08:14;13.00;99.90
20658;DHT22;10488;50.846;4.078;2022-10-16T05:10:41;13.00;99.90
20658;DHT22;10488;50.846;4.078;2022-10-16T05:13:08;13.00;99.90
20658;DHT22;10488;50.846;4.078;2022-10-16T05:15:35;13.00;99.90
20658;DHT22;10488;50.846;4.078;2022-10-16T05:18:01;12.90;99.90
20658;DHT22;10488;50.846;4.078;2022-10-16T05:20:26;13.00;99.90
20658;DHT22;10488;50.846;4.078;2022-10-16T05:22:52;13.00;99.90
20658;DHT22;10488;50.846;4.078;2022-10-16T05:25:17;13.00;99.90
20658;DHT22;10488;50.846;4.078;2022-10-16T05:27:46;13.00;99.90
20658;DHT22;10488;50.846;4.078;2022-10-16T05:30:12;12.90;99.90
20658;DHT22;10488;50.846;4.078;2022-10-16T05:32:37;12.90;99.90
20658;DHT22;10488;50.846;4.078;2022-10-16T05:35:03;12.90;99.90
20658;DHT22;10488;50.846;4.078;2022-10-16T05:37:29;12.90;99.90
20658;DHT22;10488;50.846;4.078;2022-10-16T05:39:54;12.90;99.90
20658;DHT22;10488;50.846;4.078;2022-10-16T05:42:20;12.90;99.90
20658;DHT22;10488;50.846;4.078;2022-10-16T05:44:46;12.90;99.90
20658;DHT22;10488;50.846;4.078;2022-10-16T05:47:12;12.90;99.90
20658;DHT22;10488;50.846;4.078;2022-10-16T05:49:39;12.90;99.90
20658;DHT22;10488;50.846;4.078;2022-10-16T05:52:05;12.90;99.90
20658;DHT22;10488;50.846;4.078;2022-10-16T05:54:30;13.00;99.90
20658;DHT22;10488;50.846;4.078;2022-10-16T05:56:56;13.00;99.90
20658;DHT22;10488;50.846;4.078;2022-10-16T05:59:22;13.10;99.90
20658;DHT22;10488;50.846;4.078;2022-10-16T06:01:48;13.00;99.90
20658;DHT22;10488;50.846;4.078;2022-10-16T06:04:13;13.00;99.90
20658;DHT22;10488;50.846;4.078;2022-10-16T06:06:39;13.10;99.90
20658;DHT22;10488;50.846;4.078;2022-10-16T06:09:05;13.10;99.90
20658;DHT22;10488;50.846;4.078;2022-10-16T06:11:32;13.20;99.90
20658;DHT22;10488;50.846;4.078;2022-10-16T06:14:00;13.40;99.90
20658;DHT22;10488;50.846;4.078;2022-10-16T06:16:28;13.40;99.90
20658;DHT22;10488;50.846;4.078;2022-10-16T06:18:55;13.40;99.90
20658;DHT22;10488;50.846;4.078;2022-10-16T06:21:25;13.40;99.90
20658;DHT22;10488;50.846;4.078;2022-10-16T06:23:51;13.40;99.90
20658;DHT22;10488;50.846;4.078;2022-10-16T06:26:19;13.40;99.90
20658;DHT22;10488;50.846;4.078;2022-10-16T06:28:46;13.40;99.90
20658;DHT22;10488;50.846;4.078;2022-10-16T06:31:12;13.50;99.90
20658;DHT22;10488;50.846;4.078;2022-10-16T06:33:38;13.60;99.90
20658;DHT22;10488;50.846;4.078;2022-10-16T06:36:15;13.60;99.90
20658;DHT22;10488;50.846;4.078;2022-10-16T06:38:42;13.60;99.90
20658;DHT22;10488;50.846;4.078;2022-10-16T06:41:13;13.60;99.90
20658;DHT22;10488;50.846;4.078;2022-10-16T06:43:39;13.50;99.90
20658;DHT22;10488;50.846;4.078;2022-10-16T06:46:06;13.50;99.90
20658;DHT22;10488;50.846;4.078;2022-10-16T06:48:35;13.50;99.90
20658;DHT22;10488;50.846;4.078;2022-10-16T06:51:10;13.50;99.90
20658;DHT22;10488;50.846;4.078;2022-10-16T06:53:38;13.50;99.90
20658;DHT22;10488;50.846;4.078;2022-10-16T06:56:12;13.50;99.90
20658;DHT22;10488;50.846;4.078;2022-10-16T06:58:38;13.40;99.90
20658;DHT22;10488;50.846;4.078;2022-10-16T07:01:05;13.40;99.90
20658;DHT22;10488;50.846;4.078;2022-10-16T07:03:31;13.30;99.90
20658;DHT22;10488;50.846;4.078;2022-10-16T07:05:56;13.40;99.90
20658;DHT22;10488;50.846;4.078;2022-10-16T07:08:22;13.50;99.90
20658;DHT22;10488;50.846;4.078;2022-10-16T07:10:48;13.50;99.90
20658;DHT22;10488;50.846;4.078;2022-10-16T07:13:14;13.50;99.90
20658;DHT22;10488;50.846;4.078;2022-10-16T07:15:40;13.70;99.90
20658;DHT22;10488;50.846;4.078;2022-10-16T07:18:07;14.20;99.90
20658;DHT22;10488;50.846;4.078;2022-10-16T07:20:32;14.20;99.90
20658;DHT22;10488;50.846;4.078;2022-10-16T07:22:58;14.60;99.90
20658;DHT22;10488;50.846;4.078;2022-10-16T07:25:24;14.90;99.90
20658;DHT22;10488;50.846;4.078;2022-10-16T07:27:50;15.20;99.90
20658;DHT22;10488;50.846;4.078;2022-10-16T07:30:15;15.30;99.90
20658;DHT22;10488;50.846;4.078;2022-10-16T07:32:41;15.60;99.90
20658;DHT22;10488;50.846;4.078;2022-10-16T07:35:07;15.80;99.90
20658;DHT22;10488;50.846;4.078;2022-10-16T07:37:33;16.20;99.90
20658;DHT22;10488;50.846;4.078;2022-10-16T07:39:58;16.70;99.90
20658;DHT22;10488;50.846;4.078;2022-10-16T07:42:24;16.60;99.90
20658;DHT22;10488;50.846;4.078;2022-10-16T07:44:50;16.60;99.90
20658;DHT22;10488;50.846;4.078;2022-10-16T07:47:15;16.70;99.90
20658;DHT22;10488;50.846;4.078;2022-10-16T07:49:41;16.60;99.90
20658;DHT22;10488;50.846;4.078;2022-10-16T07:52:06;16.80;99.90
20658;DHT22;10488;50.846;4.078;2022-10-16T07:54:32;16.70;99.90
20658;DHT22;10488;50.846;4.078;2022-10-16T07:56:58;16.70;99.90
20658;DHT22;10488;50.846;4.078;2022-10-16T07:59:24;16.70;99.90
20658;DHT22;10488;50.846;4.078;2022-10-16T08:01:50;16.60;99.90
20658;DHT22;10488;50.846;4.078;2022-10-16T08:04:15;16.50;99.90
20658;DHT22;10488;50.846;4.078;2022-10-16T08:06:41;16.80;99.90
20658;DHT22;10488;50.846;4.078;2022-10-16T08:09:08;17.10;99.90
20658;DHT22;10488;50.846;4.078;2022-10-16T08:11:34;17.20;99.90
20658;DHT22;10488;50.846;4.078;2022-10-16T08:14:00;17.30;99.90
20658;DHT22;10488;50.846;4.078;2022-10-16T08:16:26;17.30;99.90
20658;DHT22;10488;50.846;4.078;2022-10-16T08:18:51;17.00;99.90
20658;DHT22;10488;50.846;4.078;2022-10-16T08:21:22;16.80;99.90
20658;DHT22;10488;50.846;4.078;2022-10-16T08:23:54;17.00;99.90
20658;DHT22;10488;50.846;4.078;2022-10-16T08:26:20;17.50;99.90
20658;DHT22;10488;50.846;4.078;2022-10-16T08:28:48;17.80;99.90
20658;DHT22;10488;50.846;4.078;2022-10-16T08:31:15;17.10;99.90
20658;DHT22;10488;50.846;4.078;2022-10-16T08:33:43;17.30;99.90
20658;DHT22;10488;50.846;4.078;2022-10-16T08:36:10;17.30;99.90
20658;DHT22;10488;50.846;4.078;2022-10-16T08:38:37;17.40;99.90
20658;DHT22;10488;50.846;4.078;2022-10-16T08:49:14;17.00;99.90
20658;DHT22;10488;50.846;4.078;2022-10-16T08:51:40;16.90;99.90
20658;DHT22;10488;50.846;4.078;2022-10-16T08:56:44;16.60;99.90
20658;DHT22;10488;50.846;4.078;2022-10-16T08:59:10;16.90;99.90
20658;DHT22;10488;50.846;4.078;2022-10-16T09:01:47;16.90;99.90
20658;DHT22;10488;50.846;4.078;2022-10-16T09:04:46;17.00;99.90
20658;DHT22;10488;50.846;4.078;2022-10-16T09:07:40;17.10;99.90
20658;DHT22;10488;50.846;4.078;2022-10-16T09:11:29;17.20;99.90
20658;DHT22;10488;50.846;4.078;2022-10-16T09:16:25;17.20;99.90
20658;DHT22;10488;50.846;4.078;2022-10-16T09:21:59;17.30;99.90
20658;DHT22;10488;50.846;4.078;2022-10-16T09:24:27;17.50;99.90
20658;DHT22;10488;50.846;4.078;2022-10-16T09:26:52;17.50;99.90
20658;DHT22;10488;50.846;4.078;2022-10-16T09:29:23;17.60;99.90
20658;DHT22;10488;50.846;4.078;2022-10-16T09:31:51;17.40;99.90
20658;DHT22;10488;50.846;4.078;2022-10-16T09:34:48;17.50;99.90
20658;DHT22;10488;50.846;4.078;2022-10-16T09:37:21;17.70;99.90
20658;DHT22;10488;50.846;4.078;2022-10-16T09:39:51;17.80;99.90
20658;DHT22;10488;50.846;4.078;2022-10-16T09:42:22;17.80;99.90
20658;DHT22;10488;50.846;4.078;2022-10-16T09:44:51;17.60;99.90
20658;DHT22;10488;50.846;4.078;2022-10-16T09:47:21;17.90;99.90
20658;DHT22;10488;50.846;4.078;2022-10-16T09:49:57;18.10;99.90
20658;DHT22;10488;50.846;4.078;2022-10-16T09:52:25;18.20;99.90
20658;DHT22;10488;50.846;4.078;2022-10-16T09:54:56;18.20;99.90
20658;DHT22;10488;50.846;4.078;2022-10-16T09:57:22;18.20;99.90
20658;DHT22;10488;50.846;4.078;2022-10-16T09:59:56;18.60;99.90
20658;DHT22;10488;50.846;4.078;2022-10-16T10:02:34;18.60;99.90
20658;DHT22;10488;50.846;4.078;2022-10-16T10:05:01;18.60;99.90
20658;DHT22;10488;50.846;4.078;2022-10-16T10:07:31;18.40;99.90
20658;DHT22;10488;50.846;4.078;2022-10-16T10:10:01;18.40;99.90
20658;DHT22;10488;50.846;4.078;2022-10-16T10:12:29;18.00;99.90
20658;DHT22;10488;50.846;4.078;2022-10-16T10:14:56;18.10;99.90
20658;DHT22;10488;50.846;4.078;2022-10-16T10:17:25;18.40;99.90
20658;DHT22;10488;50.846;4.078;2022-10-16T10:19:53;18.40;99.90
20658;DHT22;10488;50.846;4.078;2022-10-16T10:30:45;18.50;99.90
20658;DHT22;10488;50.846;4.078;2022-10-16T10:33:38;18.60;99.90
20658;DHT22;10488;50.846;4.078;2022-10-16T10:46:57;18.70;99.90
20658;DHT22;10488;50.846;4.078;2022-10-16T10:49:38;18.80;99.90
20658;DHT22;10488;50.846;4.078;2022-10-16T10:52:20;18.70;99.90
20658;DHT22;10488;50.846;4.078;2022-10-16T10:57:29;18.70;99.90
20658;DHT22;10488;50.846;4.078;2022-10-16T10:59:58;18.90;99.90
20658;DHT22;10488;50.846;4.078;2022-10-16T11:08:11;19.30;99.90
20658;DHT22;10488;50.846;4.078;2022-10-16T11:10:53;19.50;99.90
20658;DHT22;10488;50.846;4.078;2022-10-16T11:13:39;19.50;99.90
20658;DHT22;10488;50.846;4.078;2022-10-16T11:18:50;19.50;99.90
20658;DHT22;10488;50.846;4.078;2022-10-16T11:21:19;19.50;99.90
20658;DHT22;10488;50.846;4.078;2022-10-16T11:24:00;19.90;99.90
20658;DHT22;10488;50.846;4.078;2022-10-16T11:26:30;20.10;99.90
20658;DHT22;10488;50.846;4.078;2022-10-16T11:28:58;20.10;99.90
20658;DHT22;10488;50.846;4.078;2022-10-16T11:34:19;20.10;99.90
20658;DHT22;10488;50.846;4.078;2022-10-16T11:39:21;19.80;99.90
20658;DHT22;10488;50.846;4.078;2022-10-16T11:41:49;20.20;99.90
20658;DHT22;10488;50.846;4.078;2022-10-16T11:47:24;20.00;99.90
20658;DHT22;10488;50.846;4.078;2022-10-16T11:50:00;19.80;99.90
20658;DHT22;10488;50.846;4.078;2022-10-16T11:52:40;19.60;99.90
20658;DHT22;10488;50.846;4.078;2022-10-16T11:55:17;19.50;99.90
20658;DHT22;10488;50.846;4.078;2022-10-16T11:57:54;19.30;99.90
20658;DHT22;10488;50.846;4.078;2022-10-16T12:00:33;19.20;99.90
20658;DHT22;10488;50.846;4.078;2022-10-16T12:03:21;19.20;99.90
20658;DHT22;10488;50.846;4.078;2022-10-16T12:06:20;19.30;99.90
20658;DHT22;10488;50.846;4.078;2022-10-16T12:08:50;19.20;99.90
20658;DHT22;10488;50.846;4.078;2022-10-16T12:11:37;19.10;99.90
20658;DHT22;10488;50.846;4.078;2022-10-16T12:16:39;19.90;99.90
20658;DHT22;10488;50.846;4.078;2022-10-16T12:19:16;19.70;99.90
20658;DHT22;10488;50.846;4.078;2022-10-16T12:21:43;19.40;99.90
20658;DHT22;10488;50.846;4.078;2022-10-16T12:24:37;19.40;99.90
20658;DHT22;10488;50.846;4.078;2022-10-16T12:27:06;19.60;99.90
20658;DHT22;10488;50.846;4.078;2022-10-16T12:29:45;19.80;99.90
20658;DHT22;10488;50.846;4.078;2022-10-16T12:32:26;20.10;99.90
20658;DHT22;10488;50.846;4.078;2022-10-16T12:34:53;19.90;99.90
20658;DHT22;10488;50.846;4.078;2022-10-16T12:39:47;19.40;99.90
20658;DHT22;10488;50.846;4.078;2022-10-16T12:44:55;19.70;99.90
20658;DHT22;10488;50.846;4.078;2022-10-16T12:49:56;20.20;99.90
20658;DHT22;10488;50.846;4.078;2022-10-16T12:52:34;20.30;99.90
20658;DHT22;10488;50.846;4.078;2022-10-16T12:55:00;20.30;99.90
20658;DHT22;10488;50.846;4.078;2022-10-16T13:10:36;20.20;99.90
20658;DHT22;10488;50.846;4.078;2022-10-16T13:13:18;20.40;99.90
20658;DHT22;10488;50.846;4.078;2022-10-16T13:21:42;19.90;99.90
20658;DHT22;10488;50.846;4.078;2022-10-16T13:24:40;19.90;99.90
20658;DHT22;10488;50.846;4.078;2022-10-16T13:30:23;19.50;99.90
20658;DHT22;10488;50.846;4.078;2022-10-16T13:32:59;19.70;99.90
20658;DHT22;10488;50.846;4.078;2022-10-16T13:35:28;19.90;99.90
20658;DHT22;10488;50.846;4.078;2022-10-16T13:38:23;20.00;99.90
20658;DHT22;10488;50.846;4.078;2022-10-16T13:41:36;20.10;99.90
20658;DHT22;10488;50.846;4.078;2022-10-16T13:43:38;20.00;99.90
20658;DHT22;10488;50.846;4.078;2022-10-16T13:46:17;19.70;99.90
20658;DHT22;10488;50.846;4.078;2022-10-16T13:48:43;19.90;99.90
20658;DHT22;10488;50.846;4.078;2022-10-16T13:51:17;20.00;99.90
20658;DHT22;10488;50.846;4.078;2022-10-16T13:53:44;19.80;99.90
20658;DHT22;10488;50.846;4.078;2022-10-16T13:56:19;19.80;99.90
20658;DHT22;10488;50.846;4.078;2022-10-16T13:58:45;20.00;99.90
20658;DHT22;10488;50.846;4.078;2022-10-16T14:01:27;20.00;99.90
20658;DHT22;10488;50.846;4.078;2022-10-16T14:04:04;20.10;99.90
20658;DHT22;10488;50.846;4.078;2022-10-16T14:06:31;20.10;99.90
20658;DHT22;10488;50.846;4.078;2022-10-16T14:12:03;19.90;99.90
20658;DHT22;10488;50.846;4.078;2022-10-16T14:14:41;19.80;99.90
20658;DHT22;10488;50.846;4.078;2022-10-16T14:17:26;20.00;99.90
20658;DHT22;10488;50.846;4.078;2022-10-16T14:19:55;19.80;99.90
20658;DHT22;10488;50.846;4.078;2022-10-16T14:22:41;19.80;99.90
20658;DHT22;10488;50.846;4.078;2022-10-16T14:27:56;19.60;99.90
20658;DHT22;10488;50.846;4.078;2022-10-16T14:30:23;19.60;99.90
20658;DHT22;10488;50.846;4.078;2022-10-16T14:32:57;19.70;99.90
20658;DHT22;10488;50.846;4.078;2022-10-16T14:35:36;19.80;99.90
20658;DHT22;10488;50.846;4.078;2022-10-16T14:38:04;19.60;99.90
20658;DHT22;10488;50.846;4.078;2022-10-16T14:40:36;19.70;99.90
20658;DHT22;10488;50.846;4.078;2022-10-16T14:43:03;19.40;99.90
20658;DHT22;10488;50.846;4.078;2022-10-16T14:45:34;19.40;99.90
20658;DHT22;10488;50.846;4.078;2022-10-16T14:48:04;19.60;99.90
20658;DHT22;10488;50.846;4.078;2022-10-16T14:50:31;19.60;99.90
20658;DHT22;10488;50.846;4.078;2022-10-16T14:52:58;19.70;99.90
20658;DHT22;10488;50.846;4.078;2022-10-16T14:55:24;19.70;99.90
20658;DHT22;10488;50.846;4.078;2022-10-16T14:57:50;19.80;99.90
20658;DHT22;10488;50.846;4.078;2022-10-16T15:00:23;19.80;99.90
20658;DHT22;10488;50.846;4.078;2022-10-16T15:02:50;19.70;99.90
20658;DHT22;10488;50.846;4.078;2022-10-16T15:05:17;19.60;99.90
20658;DHT22;10488;50.846;4.078;2022-10-16T15:07:45;19.50;99.90
20658;DHT22;10488;50.846;4.078;2022-10-16T15:10:15;19.60;99.90
20658;DHT22;10488;50.846;4.078;2022-10-16T15:12:41;19.60;99.90
20658;DHT22;10488;50.846;4.078;2022-10-16T15:15:21;19.50;99.90
20658;DHT22;10488;50.846;4.078;2022-10-16T15:17:50;19.30;99.90
20658;DHT22;10488;50.846;4.078;2022-10-16T15:20:19;19.30;99.90
20658;DHT22;10488;50.846;4.078;2022-10-16T15:22:45;19.20;99.90
20658;DHT22;10488;50.846;4.078;2022-10-16T15:27:52;19.10;99.90
20658;DHT22;10488;50.846;4.078;2022-10-16T15:30:17;18.90;99.90
20658;DHT22;10488;50.846;4.078;2022-10-16T15:32:45;18.90;99.90
20658;DHT22;10488;50.846;4.078;2022-10-16T15:35:11;18.70;99.90
20658;DHT22;10488;50.846;4.078;2022-10-16T15:37:37;18.80;99.90
20658;DHT22;10488;50.846;4.078;2022-10-16T15:40:03;18.70;99.90
20658;DHT22;10488;50.846;4.078;2022-10-16T15:42:29;18.80;99.90
20658;DHT22;10488;50.846;4.078;2022-10-16T15:44:55;18.60;99.90
20658;DHT22;10488;50.846;4.078;2022-10-16T15:47:20;18.60;99.90
20658;DHT22;10488;50.846;4.078;2022-10-16T15:49:47;18.60;99.90
20658;DHT22;10488;50.846;4.078;2022-10-16T15:52:12;18.70;99.90
20658;DHT22;10488;50.846;4.078;2022-10-16T15:54:38;18.80;99.90
20658;DHT22;10488;50.846;4.078;2022-10-16T15:57:04;18.70;99.90
20658;DHT22;10488;50.846;4.078;2022-10-16T15:59:29;18.70;99.90
20658;DHT22;10488;50.846;4.078;2022-10-16T16:01:55;18.20;99.90
20658;DHT22;10488;50.846;4.078;2022-10-16T16:04:21;18.40;99.90
20658;DHT22;10488;50.846;4.078;2022-10-16T16:06:46;18.60;99.90
20658;DHT22;10488;50.846;4.078;2022-10-16T16:09:13;18.50;99.90
20658;DHT22;10488;50.846;4.078;2022-10-16T16:11:39;18.70;99.90
20658;DHT22;10488;50.846;4.078;2022-10-16T16:14:11;18.30;99.90
20658;DHT22;10488;50.846;4.078;2022-10-16T16:16:38;18.20;99.90
20658;DHT22;10488;50.846;4.078;2022-10-16T16:19:04;18.10;99.90
20658;DHT22;10488;50.846;4.078;2022-10-16T16:21:33;17.90;99.90
20658;DHT22;10488;50.846;4.078;2022-10-16T16:23:59;17.90;99.90
20658;DHT22;10488;50.846;4.078;2022-10-16T16:26:29;17.90;99.90
20658;DHT22;10488;50.846;4.078;2022-10-16T16:28:59;17.50;99.90
20658;DHT22;10488;50.846;4.078;2022-10-16T16:31:26;17.50;99.90
20658;DHT22;10488;50.846;4.078;2022-10-16T16:33:53;17.70;99.90
20658;DHT22;10488;50.846;4.078;2022-10-16T16:36:19;17.80;99.90
20658;DHT22;10488;50.846;4.078;2022-10-16T16:38:46;17.50;99.90
20658;DHT22;10488;50.846;4.078;2022-10-16T16:41:23;17.60;99.90
20658;DHT22;10488;50.846;4.078;2022-10-16T16:43:50;17.70;99.90
20658;DHT22;10488;50.846;4.078;2022-10-16T16:46:19;17.50;99.90
20658;DHT22;10488;50.846;4.078;2022-10-16T16:48:45;17.50;99.90
20658;DHT22;10488;50.846;4.078;2022-10-16T16:51:16;17.60;99.90
20658;DHT22;10488;50.846;4.078;2022-10-16T16:53:44;17.50;99.90
20658;DHT22;10488;50.846;4.078;2022-10-16T16:56:10;17.60;99.90
20658;DHT22;10488;50.846;4.078;2022-10-16T16:58:36;17.60;99.90
20658;DHT22;10488;50.846;4.078;2022-10-16T17:01:02;17.60;99.90
20658;DHT22;10488;50.846;4.078;2022-10-16T17:03:34;17.60;99.90
20658;DHT22;10488;50.846;4.078;2022-10-16T17:08:28;17.40;99.90
20658;DHT22;10488;50.846;4.078;2022-10-16T17:10:57;17.40;99.90
20658;DHT22;10488;50.846;4.078;2022-10-16T17:13:24;17.40;99.90
20658;DHT22;10488;50.846;4.078;2022-10-16T17:15:52;17.00;99.90
20658;DHT22;10488;50.846;4.078;2022-10-16T17:18:19;16.70;99.90
20658;DHT22;10488;50.846;4.078;2022-10-16T17:20:45;16.90;99.90
20658;DHT22;10488;50.846;4.078;2022-10-16T17:23:11;17.00;99.90
20658;DHT22;10488;50.846;4.078;2022-10-16T17:25:38;16.80;99.90
20658;DHT22;10488;50.846;4.078;2022-10-16T17:28:06;16.70;99.90
20658;DHT22;10488;50.846;4.078;2022-10-16T17:30:32;16.70;99.90
20658;DHT22;10488;50.846;4.078;2022-10-16T17:33:00;16.60;99.90
20658;DHT22;10488;50.846;4.078;2022-10-16T17:35:26;16.60;99.90
20658;DHT22;10488;50.846;4.078;2022-10-16T17:37:52;16.60;99.90